Time;durP1;ratioP1;P1;durP2;ratioP2;P2;SDS_P1;SDS_P2;PMS_P1;PMS_P2;Temp;Humidity;BMP_temperature;BMP_pressure;BME280_temperature;BME280_humidity;BME280_pressure;Samples;Min_cycle;Max_cycle;Signal;HPM_P1;HPM_P2
2021/06/16 07:28:10;;;;;;;1.70;1.27;;;31.60;90.00;;;;;;3820387;23;20335;-74
2021/06/16 07:30:37;;;;;;;2.22;1.23;;;32.30;88.00;;;;;;4897970;29;20593;-74
2021/06/16 07:33:04;;;;;;;7.13;1.50;;;33.00;86.80;;;;;;4899990;29;20237;-74
2021/06/16 07:35:31;;;;;;;2.33;1.58;;;33.80;86.40;;;;;;4895907;29;20239;-72
2021/06/16 07:37:58;;;;;;;3.70;1.73;;;33.60;83.30;;;;;;4898718;29;20218;-72
2021/06/16 07:40:24;;;;;;;3.15;1.70;;;33.00;84.70;;;;;;4898623;29;20210;-72
2021/06/16 07:42:51;;;;;;;4.45;1.55;;;32.40;85.30;;;;;;4898382;29;20674;-73
2021/06/16 07:45:19;;;;;;;2.45;1.42;;;32.80;85.20;;;;;;4897483;29;20673;-71
2021/06/16 07:47:46;;;;;;;1.85;1.30;;;33.00;84.70;;;;;;4898441;29;20225;-71
2021/06/16 07:50:14;;;;;;;3.53;1.83;;;33.20;85.20;;;;;;4898415;29;20217;-72
2021/06/16 07:52:41;;;;;;;4.05;1.13;;;33.00;84.50;;;;;;4898297;29;20215;-72
2021/06/16 07:55:10;;;;;;;2.90;1.55;;;33.10;86.40;;;;;;4898333;29;20227;-72
2021/06/16 07:57:37;;;;;;;2.40;1.73;;;33.20;86.00;;;;;;4898124;29;20220;-71
2021/06/16 08:00:05;;;;;;;2.40;1.50;;;33.00;84.50;;;;;;4898121;29;20591;-73
2021/06/16 08:02:33;;;;;;;10.65;2.03;;;33.00;84.80;;;;;;4897722;29;20218;-72
2021/06/16 08:05:00;;;;;;;1.85;1.30;;;32.80;86.00;;;;;;4897299;29;20223;-72
2021/06/16 08:07:27;;;;;;;2.92;1.73;;;33.60;85.90;;;;;;4897933;29;20253;-73
2021/06/16 08:09:54;;;;;;;3.05;1.35;;;33.40;84.30;;;;;;4898259;29;20323;-73
2021/06/16 08:12:21;;;;;;;3.10;1.73;;;33.20;85.00;;;;;;4897905;29;20217;-72
2021/06/16 08:14:47;;;;;;;2.78;1.40;;;33.30;84.70;;;;;;4897215;29;20741;-71
2021/06/16 08:17:14;;;;;;;3.10;1.73;;;33.50;84.30;;;;;;4897705;29;20220;-74
2021/06/16 08:19:43;;;;;;;2.10;1.50;;;33.40;85.20;;;;;;4897832;29;20669;-73
2021/06/16 08:22:12;;;;;;;2.08;1.67;;;33.00;85.80;;;;;;4897417;29;20677;-76
2021/06/16 08:24:39;;;;;;;4.78;1.70;;;32.90;85.40;;;;;;4897628;29;20261;-76
2021/06/16 08:27:07;;;;;;;3.83;1.90;;;33.40;84.80;;;;;;4897460;29;20238;-75
2021/06/16 08:29:34;;;;;;;2.75;1.70;;;33.80;85.20;;;;;;4897914;29;20304;-72
2021/06/16 08:32:00;;;;;;;5.28;1.63;;;33.90;82.60;;;;;;4897874;29;20206;-74
2021/06/16 08:34:27;;;;;;;5.95;1.58;;;34.40;83.30;;;;;;4897453;29;20240;-77
2021/06/16 08:36:55;;;;;;;6.03;1.83;;;34.00;83.60;;;;;;4898068;29;20211;-76
2021/06/16 08:39:23;;;;;;;3.47;1.88;;;33.10;85.90;;;;;;4897469;29;20662;-74
2021/06/16 08:41:51;;;;;;;3.13;1.73;;;33.20;84.30;;;;;;4897483;29;20214;-76
2021/06/16 08:44:18;;;;;;;2.42;1.48;;;33.90;85.50;;;;;;4897172;29;20226;-76
2021/06/16 08:46:45;;;;;;;5.38;2.00;;;34.10;84.10;;;;;;4897688;29;20245;-77
2021/06/16 08:49:12;;;;;;;3.00;1.92;;;34.10;84.10;;;;;;4897723;29;20317;-75
2021/06/16 08:51:39;;;;;;;3.05;1.88;;;33.80;84.00;;;;;;4897772;29;20221;-73
2021/06/16 08:54:10;;;;;;;3.15;1.73;;;33.70;84.10;;;;;;4898178;29;20210;-72
2021/06/16 08:56:38;;;;;;;2.83;1.85;;;33.60;84.70;;;;;;4898322;29;20329;-72
2021/06/16 08:59:05;;;;;;;8.02;2.33;;;33.10;84.70;;;;;;4897411;29;20207;-74
2021/06/16 09:01:32;;;;;;;4.15;2.00;;;32.60;85.60;;;;;;4898314;29;20206;-74
2021/06/16 09:03:59;;;;;;;3.88;1.90;;;32.80;86.70;;;;;;4898324;29;20215;-73
2021/06/16 09:06:30;;;;;;;2.40;2.10;;;32.90;86.10;;;;;;4898360;29;20240;-71
2021/06/16 09:09:00;;;;;;;4.53;2.38;;;32.90;86.20;;;;;;4898112;29;20677;-73
2021/06/16 09:11:30;;;;;;;5.53;2.22;;;33.20;85.90;;;;;;4898164;29;20225;-73
2021/06/16 09:14:13;;;;;;;14.18;2.20;;;33.50;84.90;;;;;;4897584;29;20207;-72
2021/06/16 09:16:40;;;;;;;3.78;2.00;;;33.60;85.20;;;;;;4898060;29;20215;-74
2021/06/16 09:19:19;;;;;;;2.65;1.90;;;32.70;85.80;;;;;;4897883;29;20214;-72
2021/06/16 09:21:47;;;;;;;2.38;1.88;;;33.20;87.30;;;;;;4897655;29;20213;-74
2021/06/16 09:24:14;;;;;;;3.85;1.98;;;33.40;85.90;;;;;;4897817;29;20234;-75
2021/06/16 09:26:43;;;;;;;5.45;2.17;;;33.10;86.60;;;;;;4897551;29;20238;-73
2021/06/16 09:29:12;;;;;;;3.95;2.00;;;32.60;86.40;;;;;;4897931;29;20218;-74
2021/06/16 09:31:40;;;;;;;2.30;1.90;;;33.10;87.10;;;;;;4897851;29;20210;-73
2021/06/16 09:34:12;;;;;;;4.22;2.08;;;33.60;87.10;;;;;;4898086;29;20666;-71
2021/06/16 09:36:50;;;;;;;3.30;2.38;;;32.80;86.00;;;;;;4898165;29;20209;-73
2021/06/16 09:39:20;;;;;;;2.55;1.90;;;32.30;87.80;;;;;;4898072;29;20216;-73
2021/06/16 09:41:56;;;;;;;3.88;2.30;;;32.20;89.60;;;;;;4897775;29;20218;-72
2021/06/16 09:44:45;;;;;;;3.00;1.98;;;32.00;88.90;;;;;;4897935;29;20233;-72
2021/06/16 09:47:17;;;;;;;5.55;1.80;;;31.90;88.90;;;;;;4898131;29;20344;-73
2021/06/16 09:49:53;;;;;;;3.30;2.00;;;31.30;89.20;;;;;;4897744;29;20221;-73
2021/06/16 09:52:44;;;;;;;3.95;2.00;;;30.80;90.70;;;;;;4898390;29;20216;-73
2021/06/16 09:55:28;;;;;;;2.85;2.20;;;30.70;90.70;;;;;;4886313;29;20265;-73
2021/06/16 09:58:04;;;;;;;4.75;2.10;;;31.10;90.50;;;;;;4898504;29;20221;-74
2021/06/16 10:00:34;;;;;;;5.43;2.10;;;30.90;90.50;;;;;;4897622;29;20201;-73
2021/06/16 10:03:15;;;;;;;4.78;1.92;;;31.20;90.90;;;;;;4881029;29;20207;-73
2021/06/16 10:06:04;;;;;;;3.85;2.30;;;31.80;90.40;;;;;;4897453;29;20231;-71
2021/06/16 10:08:31;;;;;;;2.58;1.80;;;30.60;90.80;;;;;;4898409;29;20210;-73
2021/06/16 10:10:59;;;;;;;3.22;2.20;;;31.00;91.20;;;;;;4899677;29;20203;-73
2021/06/16 10:13:27;;;;;;;4.45;2.35;;;30.60;91.30;;;;;;4901118;29;20210;-74
2021/06/16 10:15:55;;;;;;;4.70;2.03;;;30.30;92.30;;;;;;4901040;29;20256;-72
2021/06/16 10:18:23;;;;;;;4.05;2.20;;;30.20;92.00;;;;;;4901005;29;20214;-74
2021/06/16 10:20:51;;;;;;;2.38;2.10;;;30.00;92.20;;;;;;4900975;29;20662;-73
2021/06/16 10:23:18;;;;;;;4.50;2.10;;;29.90;92.60;;;;;;4901057;29;20210;-73
2021/06/16 10:25:45;;;;;;;5.38;2.50;;;29.90;93.20;;;;;;4900587;29;20670;-74
2021/06/16 10:28:14;;;;;;;5.13;2.58;;;29.60;92.80;;;;;;4900813;29;20593;-73
2021/06/16 10:30:44;;;;;;;3.83;1.98;;;29.70;93.40;;;;;;4900817;29;20214;-73
2021/06/16 10:33:33;;;;;;;3.10;2.35;;;29.80;92.70;;;;;;4900918;29;20215;-74
2021/06/16 10:36:17;;;;;;;5.47;2.60;;;30.00;92.90;;;;;;4900780;29;20234;-73
2021/06/16 10:39:07;;;;;;;4.10;2.28;;;29.80;93.00;;;;;;4900469;29;20210;-73
2021/06/16 10:41:55;;;;;;;3.80;2.10;;;29.90;93.50;;;;;;4900606;29;20623;-72
2021/06/16 10:44:23;;;;;;;5.65;2.38;;;29.70;94.30;;;;;;4900262;29;20320;-73
2021/06/16 10:46:53;;;;;;;3.10;2.25;;;29.70;93.40;;;;;;4900485;29;20244;-72
2021/06/16 10:49:53;;;;;;;3.30;2.17;;;29.80;93.30;;;;;;4900521;29;20218;-71
2021/06/16 10:52:22;;;;;;;3.47;2.38;;;29.90;92.60;;;;;;4895789;29;20214;-74
2021/06/16 10:55:00;;;;;;;6.15;2.35;;;29.80;92.80;;;;;;4900492;29;20230;-74
2021/06/16 10:57:28;;;;;;;3.90;2.22;;;29.70;93.40;;;;;;4900143;29;20217;-72
2021/06/16 11:00:14;;;;;;;2.97;2.38;;;29.70;93.20;;;;;;4899206;29;20213;-73
2021/06/16 11:03:03;;;;;;;2.88;1.92;;;29.80;93.60;;;;;;4897671;29;20218;-72
2021/06/16 11:05:36;;;;;;;4.47;2.15;;;29.90;92.90;;;;;;4898391;29;20236;-72
2021/06/16 11:08:04;;;;;;;3.45;2.17;;;30.20;94.10;;;;;;4888400;29;20300;-73
2021/06/16 11:10:56;;;;;;;5.45;2.30;;;30.30;92.30;;;;;;4893800;29;20223;-73
2021/06/16 11:13:36;;;;;;;2.65;2.05;;;30.40;92.60;;;;;;4894992;29;20211;-72
2021/06/16 11:16:39;;;;;;;3.83;2.05;;;30.60;91.70;;;;;;4888494;29;20309;-72
2021/06/16 11:19:38;;;;;;;3.42;1.80;;;30.70;91.40;;;;;;4899173;29;20297;-72
2021/06/16 11:22:21;;;;;;;3.58;2.33;;;30.70;91.10;;;;;;4898741;29;20211;-73
2021/06/16 11:25:10;;;;;;;6.00;2.13;;;30.60;90.60;;;;;;4898724;29;20716;-73
2021/06/16 11:28:04;;;;;;;3.47;2.05;;;30.40;90.50;;;;;;4899973;29;20238;-72
2021/06/16 11:30:34;;;;;;;5.10;1.92;;;30.30;91.30;;;;;;4899955;29;20218;-74
2021/06/16 11:33:31;;;;;;;3.88;2.20;;;30.30;91.80;;;;;;4899803;29;20206;-74
2021/06/16 11:36:02;;;;;;;2.75;1.83;;;30.40;91.20;;;;;;4900126;29;20245;-75
2021/06/16 11:38:32;;;;;;;5.30;2.50;;;30.40;90.60;;;;;;4900162;29;20214;-75
2021/06/16 11:41:02;;;;;;;3.20;2.10;;;30.40;91.10;;;;;;4899737;29;20226;-74
2021/06/16 11:43:36;;;;;;;2.90;2.13;;;30.30;91.40;;;;;;4899380;29;20208;-73
2021/06/16 11:46:06;;;;;;;2.90;2.28;;;30.20;90.60;;;;;;4899500;29;20282;-73
2021/06/16 11:48:33;;;;;;;3.35;2.22;;;30.20;90.70;;;;;;4899542;29;20245;-74
2021/06/16 11:51:01;;;;;;;2.78;1.88;;;30.00;91.10;;;;;;4899678;29;20573;-74
2021/06/16 11:53:30;;;;;;;2.58;1.80;;;30.10;92.40;;;;;;4899418;29;20206;-74
2021/06/16 11:56:01;;;;;;;2.70;2.03;;;30.10;91.70;;;;;;4899466;29;20258;-74
2021/06/16 11:58:31;;;;;;;2.85;2.30;;;30.20;90.50;;;;;;4899455;29;20587;-74
2021/06/16 12:01:13;;;;;;;3.58;2.30;;;30.30;90.70;;;;;;4900223;29;20212;-74
2021/06/16 12:03:42;;;;;;;2.58;1.90;;;30.20;89.90;;;;;;4900132;29;20704;-74
2021/06/16 12:06:12;;;;;;;3.92;1.92;;;30.20;89.20;;;;;;4899307;29;20594;-72
2021/06/16 12:08:40;;;;;;;3.20;2.15;;;30.30;90.30;;;;;;4899710;29;20238;-73
2021/06/16 12:11:21;;;;;;;2.42;1.92;;;30.40;90.60;;;;;;4899512;29;20301;-72
2021/06/16 12:13:59;;;;;;;4.03;2.10;;;30.30;87.50;;;;;;4899210;29;20210;-73
2021/06/16 12:16:31;;;;;;;3.95;1.85;;;30.20;89.40;;;;;;4899453;29;20213;-74
2021/06/16 12:19:09;;;;;;;2.75;1.63;;;30.10;90.10;;;;;;4899750;29;20219;-74
2021/06/16 12:21:37;;;;;;;3.92;2.10;;;30.10;90.70;;;;;;4899780;29;20220;-73
2021/06/16 12:24:18;;;;;;;4.75;2.30;;;30.30;91.50;;;;;;4899529;29;20211;-73
2021/06/16 12:27:01;;;;;;;2.05;1.85;;;30.30;90.60;;;;;;4899076;29;20210;-74
2021/06/16 12:29:28;;;;;;;3.75;2.25;;;30.30;90.80;;;;;;4898579;29;20290;-75
2021/06/16 12:31:57;;;;;;;3.30;2.17;;;30.00;90.90;;;;;;4898795;29;20211;-74
2021/06/16 12:34:32;;;;;;;13.93;2.72;;;30.20;91.60;;;;;;4897971;29;20257;-74
2021/06/16 12:37:08;;;;;;;3.83;1.83;;;30.30;90.10;;;;;;4898656;29;20218;-74
2021/06/16 12:39:35;;;;;;;5.50;2.03;;;30.40;90.50;;;;;;4898551;29;20222;-75
2021/06/16 12:42:06;;;;;;;2.65;1.83;;;30.40;90.40;;;;;;4898458;29;20206;-75
2021/06/16 12:44:38;;;;;;;19.23;4.50;;;30.50;90.70;;;;;;4898024;29;20241;-75
2021/06/16 12:47:06;;;;;;;14.18;2.60;;;30.70;91.00;;;;;;4898362;29;20245;-74
2021/06/16 12:49:37;;;;;;;3.47;2.10;;;30.90;90.40;;;;;;4898628;29;20214;-75
2021/06/16 12:52:07;;;;;;;4.55;1.90;;;30.80;90.10;;;;;;4898388;29;20297;-74
2021/06/16 12:54:37;;;;;;;2.22;2.03;;;30.70;89.60;;;;;;4898069;29;20602;-74
2021/06/16 12:57:10;;;;;;;2.75;1.83;;;30.80;90.60;;;;;;4898440;29;20225;-74
2021/06/16 12:59:39;;;;;;;2.40;1.83;;;30.80;90.00;;;;;;4898129;29;20301;-74
2021/06/16 13:02:07;;;;;;;3.28;2.33;;;30.80;90.10;;;;;;4898149;29;20217;-74
2021/06/16 13:04:50;;;;;;;2.88;2.13;;;30.80;88.20;;;;;;4898183;29;20241;-74
2021/06/16 13:07:19;;;;;;;2.60;2.08;;;30.70;88.90;;;;;;4898595;29;20270;-73
2021/06/16 13:10:06;;;;;;;3.40;1.92;;;30.50;89.50;;;;;;4897942;29;20547;-74
2021/06/16 13:12:33;;;;;;;4.47;2.20;;;30.70;90.10;;;;;;4898141;29;20210;-74
2021/06/16 13:15:03;;;;;;;1.60;1.42;;;30.70;88.40;;;;;;4897788;29;20275;-74
2021/06/16 13:17:41;;;;;;;1.55;1.40;;;30.60;87.00;;;;;;4898284;29;20217;-74
2021/06/16 13:20:10;;;;;;;2.38;1.70;;;30.70;88.30;;;;;;4898117;29;20225;-74
2021/06/16 13:22:41;;;;;;;4.00;1.90;;;30.60;88.60;;;;;;4898176;29;20634;-74
2021/06/16 13:25:09;;;;;;;3.25;1.52;;;30.60;87.90;;;;;;4898457;29;20230;-74
2021/06/16 13:27:50;;;;;;;1.95;1.50;;;30.60;87.10;;;;;;4897739;29;20241;-74
2021/06/16 13:30:23;;;;;;;2.20;1.40;;;30.60;84.60;;;;;;4897844;29;20214;-74
2021/06/16 13:32:51;;;;;;;3.75;1.45;;;30.70;88.00;;;;;;4897720;29;20210;-73
2021/06/16 13:35:18;;;;;;;2.30;1.45;;;30.90;86.50;;;;;;4897843;29;20237;-72
2021/06/16 13:37:46;;;;;;;2.08;1.55;;;31.00;84.60;;;;;;4897810;29;20229;-72
2021/06/16 13:40:15;;;;;;;2.03;1.60;;;31.00;86.10;;;;;;4897690;29;20577;-74
2021/06/16 13:42:47;;;;;;;2.13;1.70;;;31.10;86.10;;;;;;4897690;29;20211;-74
2021/06/16 13:45:15;;;;;;;2.78;1.58;;;31.10;86.30;;;;;;4901502;29;20241;-74
2021/06/16 13:47:42;;;;;;;2.70;1.48;;;31.00;84.80;;;;;;4903678;29;20240;-73
2021/06/16 13:50:09;;;;;;;2.45;1.70;;;31.00;86.90;;;;;;4903879;29;20662;-72
2021/06/16 13:52:36;;;;;;;3.72;1.70;;;31.10;87.00;;;;;;4903653;29;20218;-73
2021/06/16 13:55:06;;;;;;;1.50;1.30;;;31.20;85.20;;;;;;4904034;29;20229;-73
2021/06/16 13:57:32;;;;;;;3.42;1.48;;;31.20;84.80;;;;;;4904006;29;20214;-73
2021/06/16 13:59:59;;;;;;;1.65;1.35;;;31.10;82.80;;;;;;4903867;29;20217;-73
2021/06/16 14:02:27;;;;;;;2.65;1.88;;;31.10;85.60;;;;;;4903882;29;20210;-73
2021/06/16 14:04:54;;;;;;;3.50;1.90;;;31.10;85.90;;;;;;4903691;29;20682;-73
2021/06/16 14:07:20;;;;;;;2.67;1.67;;;31.20;86.40;;;;;;4903778;29;20214;-74
2021/06/16 14:09:47;;;;;;;14.60;3.70;;;31.10;86.70;;;;;;4904030;29;20214;-73
2021/06/16 14:12:18;;;;;;;3.72;2.25;;;31.10;85.20;;;;;;4904049;29;20258;-73
2021/06/16 14:14:45;;;;;;;3.38;1.70;;;31.10;86.40;;;;;;4910056;29;20230;-71
2021/06/16 14:17:11;;;;;;;3.15;1.50;;;31.10;86.50;;;;;;4901962;29;20427;-74
2021/06/16 14:19:38;;;;;;;3.22;1.73;;;31.20;89.00;;;;;;4901493;29;20579;-74
2021/06/16 14:22:05;;;;;;;2.97;1.90;;;31.30;88.00;;;;;;4901983;29;20206;-74
2021/06/16 14:24:32;;;;;;;3.55;1.85;;;31.30;89.60;;;;;;4903377;29;20257;-74
2021/06/16 14:26:59;;;;;;;2.00;1.70;;;31.40;87.10;;;;;;4903653;29;20216;-74
2021/06/16 14:29:27;;;;;;;3.97;1.73;;;31.20;87.10;;;;;;4903347;29;20242;-75
2021/06/16 14:31:54;;;;;;;7.38;2.70;;;31.30;86.60;;;;;;4903613;29;20280;-75
2021/06/16 14:34:21;;;;;;;1.67;1.45;;;31.40;85.90;;;;;;4903460;29;20230;-73
2021/06/16 14:36:47;;;;;;;1.77;1.50;;;31.40;88.90;;;;;;4903984;29;20210;-75
2021/06/16 14:39:15;;;;;;;3.05;1.60;;;31.30;86.30;;;;;;4903552;29;20225;-75
2021/06/16 14:41:41;;;;;;;3.25;1.77;;;31.40;87.20;;;;;;4903794;29;20266;-74
2021/06/16 14:44:08;;;;;;;2.20;1.70;;;31.40;86.90;;;;;;4903473;29;20221;-74
2021/06/16 14:46:37;;;;;;;2.70;1.88;;;31.50;87.50;;;;;;4903813;29;20217;-74
2021/06/16 14:49:03;;;;;;;5.13;1.95;;;31.50;88.50;;;;;;4903232;29;20245;-73
2021/06/16 14:51:31;;;;;;;2.28;1.60;;;31.30;86.90;;;;;;4903513;29;20220;-74
2021/06/16 14:53:57;;;;;;;3.15;1.70;;;31.30;88.70;;;;;;4903366;29;20262;-74
2021/06/16 14:56:24;;;;;;;1.90;1.52;;;31.30;87.60;;;;;;4901353;29;20210;-74
2021/06/16 14:58:51;;;;;;;3.08;1.70;;;31.10;88.20;;;;;;4900450;29;20293;-73
2021/06/16 15:01:18;;;;;;;3.15;1.80;;;31.00;88.50;;;;;;4900339;29;20214;-74
2021/06/16 15:03:49;;;;;;;2.83;1.80;;;31.00;88.00;;;;;;4900591;29;20225;-75
2021/06/16 15:06:16;;;;;;;3.13;1.90;;;31.00;89.80;;;;;;4900543;29;20230;-74
2021/06/16 15:08:42;;;;;;;2.38;1.80;;;30.90;89.30;;;;;;4900492;29;20596;-74
2021/06/16 15:11:09;;;;;;;2.00;1.77;;;31.00;88.90;;;;;;4900544;29;20217;-74
2021/06/16 15:13:37;;;;;;;2.33;1.70;;;31.10;90.50;;;;;;4900145;29;20213;-73
2021/06/16 15:16:04;;;;;;;3.95;1.73;;;31.20;90.10;;;;;;4899899;29;20237;-74
2021/06/16 15:18:31;;;;;;;2.47;1.60;;;31.30;87.50;;;;;;4900552;29;20214;-71
2021/06/16 15:20:59;;;;;;;3.17;1.90;;;31.30;89.40;;;;;;4900123;29;20221;-73
2021/06/16 15:23:26;;;;;;;1.95;1.70;;;31.20;88.30;;;;;;4900316;29;20210;-74
2021/06/16 15:25:53;;;;;;;1.73;1.60;;;31.10;88.50;;;;;;4900003;29;20317;-74
2021/06/16 15:28:20;;;;;;;1.80;1.42;;;31.10;90.10;;;;;;4899790;29;20249;-74
2021/06/16 15:30:47;;;;;;;2.78;1.80;;;31.10;89.30;;;;;;4900088;29;20210;-72
2021/06/16 15:33:14;;;;;;;2.95;1.70;;;31.10;90.10;;;;;;4899992;29;20211;-74
2021/06/16 15:35:41;;;;;;;3.17;1.80;;;31.20;89.00;;;;;;4899978;29;20231;-74
2021/06/16 15:38:14;;;;;;;2.53;1.88;;;31.30;87.70;;;;;;4900210;29;20214;-75
2021/06/16 15:40:42;;;;;;;2.25;1.60;;;31.30;88.50;;;;;;4899985;29;20210;-74
2021/06/16 15:43:11;;;;;;;2.33;1.77;;;31.30;88.10;;;;;;4899622;29;20218;-74
2021/06/16 15:45:39;;;;;;;2.08;1.67;;;31.20;88.80;;;;;;4899391;29;20705;-74
2021/06/16 15:48:10;;;;;;;2.58;1.90;;;31.10;88.70;;;;;;4899451;29;20230;-72
2021/06/16 15:50:37;;;;;;;2.50;1.60;;;31.00;89.10;;;;;;4899520;29;20211;-74
2021/06/16 15:53:06;;;;;;;2.83;1.60;;;30.90;88.60;;;;;;4899497;29;20213;-73
2021/06/16 15:55:36;;;;;;;2.67;1.60;;;30.90;89.10;;;;;;4899379;29;20645;-74
2021/06/16 15:58:03;;;;;;;2.42;1.88;;;30.90;90.00;;;;;;4899658;29;20218;-74
2021/06/16 16:00:30;;;;;;;1.70;1.60;;;30.80;90.40;;;;;;4899384;29;20215;-74
2021/06/16 16:02:57;;;;;;;2.53;1.52;;;30.80;89.50;;;;;;4899610;29;20206;-75
2021/06/16 16:05:26;;;;;;;2.35;1.80;;;30.60;90.00;;;;;;4899565;29;20230;-74
2021/06/16 16:07:53;;;;;;;1.90;1.55;;;30.60;90.00;;;;;;4898166;29;20215;-74
2021/06/16 16:10:20;;;;;;;2.20;2.00;;;30.60;90.50;;;;;;4899180;29;20213;-74
2021/06/16 16:12:49;;;;;;;1.90;1.70;;;30.60;90.40;;;;;;4899129;29;20297;-74
2021/06/16 16:15:17;;;;;;;2.88;1.83;;;30.60;90.70;;;;;;4898894;29;20235;-70
2021/06/16 16:17:45;;;;;;;3.05;1.90;;;30.60;89.80;;;;;;4899047;29;20213;-74
2021/06/16 16:20:13;;;;;;;2.38;1.65;;;30.60;89.50;;;;;;4899097;29;20213;-74
2021/06/16 16:22:41;;;;;;;2.25;1.92;;;30.70;89.90;;;;;;4899082;29;20214;-74
2021/06/16 16:25:09;;;;;;;2.22;1.73;;;30.70;88.20;;;;;;4898973;29;20234;-72
2021/06/16 16:27:36;;;;;;;2.70;1.98;;;30.60;90.10;;;;;;4898948;29;20233;-74
2021/06/16 16:30:07;;;;;;;3.38;1.80;;;30.70;90.40;;;;;;4898595;29;20242;-72
2021/06/16 16:32:34;;;;;;;2.97;1.80;;;30.70;90.20;;;;;;4899069;29;20222;-74
2021/06/16 16:35:01;;;;;;;4.20;1.90;;;30.60;90.50;;;;;;4898849;29;20237;-75
2021/06/16 16:37:28;;;;;;;3.15;1.90;;;30.60;91.10;;;;;;4898806;29;20210;-74
2021/06/16 16:39:55;;;;;;;4.45;2.15;;;30.70;90.20;;;;;;4899090;29;20215;-74
2021/06/16 16:42:21;;;;;;;2.05;1.80;;;30.70;90.50;;;;;;4898598;29;20210;-75
2021/06/16 16:44:48;;;;;;;2.67;2.00;;;30.70;88.80;;;;;;4898483;29;20253;-73
2021/06/16 16:47:16;;;;;;;2.40;2.03;;;30.70;90.20;;;;;;4898477;29;20206;-72
2021/06/16 16:49:45;;;;;;;2.60;2.08;;;30.70;90.40;;;;;;4898118;29;20234;-72
2021/06/16 16:52:11;;;;;;;3.47;2.00;;;30.70;90.30;;;;;;4898171;29;20301;-72
2021/06/16 16:54:38;;;;;;;2.42;1.80;;;30.70;90.50;;;;;;4898162;29;20241;-72
2021/06/16 16:57:06;;;;;;;2.72;2.13;;;30.70;90.30;;;;;;4898449;29;20217;-72
2021/06/16 16:59:32;;;;;;;2.78;1.58;;;30.70;89.70;;;;;;4898214;29;20210;-72
2021/06/16 17:01:59;;;;;;;1.70;1.55;;;30.70;89.80;;;;;;4898193;29;20210;-73
2021/06/16 17:04:28;;;;;;;2.72;1.90;;;30.60;89.60;;;;;;4898367;29;20234;-73
2021/06/16 17:06:54;;;;;;;2.30;1.90;;;30.40;90.50;;;;;;4898337;29;20210;-73
2021/06/16 17:09:22;;;;;;;2.22;1.95;;;30.40;90.80;;;;;;4898419;29;20245;-72
2021/06/16 17:11:49;;;;;;;2.38;1.83;;;30.30;90.50;;;;;;4898415;29;20213;-72
2021/06/16 17:14:16;;;;;;;2.30;1.60;;;30.30;90.70;;;;;;4897951;29;20226;-72
2021/06/16 17:16:43;;;;;;;2.85;1.92;;;30.20;91.10;;;;;;4898121;29;20581;-73
2021/06/16 17:19:10;;;;;;;2.38;1.98;;;30.10;91.00;;;;;;4897473;29;20210;-74
2021/06/16 17:21:38;;;;;;;2.90;2.20;;;30.20;91.20;;;;;;4898177;29;20211;-71
2021/06/16 17:24:06;;;;;;;3.90;1.90;;;30.30;91.10;;;;;;4897794;29;20297;-73
2021/06/16 17:26:32;;;;;;;3.45;2.03;;;30.30;91.10;;;;;;4897956;29;20273;-73
2021/06/16 17:28:59;;;;;;;2.38;1.88;;;30.30;91.00;;;;;;4897547;29;20246;-73
2021/06/16 17:31:26;;;;;;;2.38;1.80;;;30.30;90.80;;;;;;4897704;29;20232;-73
2021/06/16 17:33:53;;;;;;;2.45;1.95;;;30.30;91.30;;;;;;4897994;29;20215;-74
2021/06/16 17:36:20;;;;;;;3.95;1.90;;;30.30;90.90;;;;;;4897685;29;20211;-73
2021/06/16 17:38:48;;;;;;;3.58;1.80;;;30.20;90.90;;;;;;4897749;29;20217;-73
2021/06/16 17:41:15;;;;;;;3.03;1.90;;;30.30;91.30;;;;;;4897832;29;20214;-72
2021/06/16 17:43:42;;;;;;;2.60;1.98;;;30.20;90.30;;;;;;4897536;29;20674;-71
2021/06/16 17:46:08;;;;;;;1.98;1.70;;;30.20;90.80;;;;;;4897655;29;20231;-73
2021/06/16 17:48:35;;;;;;;2.63;1.98;;;30.10;91.10;;;;;;4897619;29;20588;-73
2021/06/16 17:51:02;;;;;;;2.47;1.80;;;30.10;91.20;;;;;;4897971;29;20345;-72
2021/06/16 17:53:31;;;;;;;2.15;1.75;;;30.20;90.80;;;;;;4897659;29;20214;-73
2021/06/16 17:55:59;;;;;;;3.72;2.22;;;30.20;92.00;;;;;;4897646;29;20234;-73
2021/06/16 17:58:26;;;;;;;3.25;2.08;;;30.20;91.40;;;;;;4897537;29;20294;-73
2021/06/16 18:00:53;;;;;;;3.63;1.88;;;30.20;92.00;;;;;;4897074;29;20680;-73
2021/06/16 18:03:21;;;;;;;2.47;1.63;;;30.10;92.30;;;;;;4897348;29;20210;-73
2021/06/16 18:05:48;;;;;;;2.58;2.00;;;30.00;92.80;;;;;;4897257;29;20227;-74
2021/06/16 18:08:15;;;;;;;2.40;1.83;;;30.00;92.50;;;;;;4897248;29;20217;-73
2021/06/16 18:10:42;;;;;;;2.20;1.98;;;29.90;92.90;;;;;;4897432;29;20238;-72
2021/06/16 18:13:11;;;;;;;2.35;1.98;;;29.90;93.00;;;;;;4897382;29;20221;-74
2021/06/16 18:15:39;;;;;;;2.78;1.70;;;29.80;93.20;;;;;;4897470;29;20231;-72
2021/06/16 18:18:08;;;;;;;1.88;1.58;;;29.70;92.50;;;;;;4897685;29;20210;-72
2021/06/16 18:20:36;;;;;;;1.80;1.65;;;29.70;93.00;;;;;;4897431;29;20214;-74
2021/06/16 18:23:05;;;;;;;2.05;1.80;;;29.70;92.70;;;;;;4897708;29;20638;-73
2021/06/16 18:25:32;;;;;;;2.55;2.08;;;29.70;92.00;;;;;;4897634;29;20713;-71
2021/06/16 18:27:59;;;;;;;2.10;1.90;;;29.60;93.10;;;;;;4897738;29;20211;-73
2021/06/16 18:30:28;;;;;;;2.75;1.88;;;29.60;92.50;;;;;;4897346;29;20264;-72
2021/06/16 18:32:56;;;;;;;2.60;1.95;;;29.50;92.80;;;;;;4900687;29;20218;-71
2021/06/16 18:35:23;;;;;;;2.65;2.00;;;29.50;92.70;;;;;;4900703;29;20230;-72
2021/06/16 18:37:52;;;;;;;2.67;2.00;;;29.50;94.10;;;;;;4900937;29;20210;-73
2021/06/16 18:40:21;;;;;;;3.08;1.90;;;29.40;93.20;;;;;;4900870;29;20221;-74
2021/06/16 18:42:51;;;;;;;3.35;2.00;;;29.40;93.20;;;;;;4900983;29;20206;-73
2021/06/16 18:45:18;;;;;;;3.00;1.95;;;29.40;94.20;;;;;;4900766;29;20301;-73
2021/06/16 18:47:50;;;;;;;2.22;2.03;;;29.40;94.10;;;;;;4900747;29;20211;-73
2021/06/16 18:50:18;;;;;;;3.08;1.90;;;29.20;94.60;;;;;;4900613;29;20310;-71
2021/06/16 18:52:46;;;;;;;4.43;2.03;;;29.10;94.70;;;;;;4899993;29;20211;-71
2021/06/16 18:55:13;;;;;;;3.50;1.83;;;29.00;94.80;;;;;;4900018;29;20226;-72
2021/06/16 18:57:40;;;;;;;2.20;1.80;;;28.90;95.20;;;;;;4900410;29;20297;-72
2021/06/16 19:00:08;;;;;;;4.78;1.95;;;28.80;95.20;;;;;;4900311;29;20214;-72
2021/06/16 19:02:40;;;;;;;3.35;2.30;;;28.70;96.20;;;;;;4900556;29;20215;-73
2021/06/16 19:05:15;;;;;;;2.85;2.08;;;28.60;96.50;;;;;;4899962;29;20234;-73
2021/06/16 19:07:43;;;;;;;2.25;1.75;;;28.60;96.50;;;;;;4900169;29;20230;-73
2021/06/16 19:10:10;;;;;;;2.10;1.90;;;28.50;96.50;;;;;;4899876;29;20242;-73
2021/06/16 19:12:37;;;;;;;2.65;2.17;;;28.40;96.70;;;;;;4899919;29;20214;-73
2021/06/16 19:15:06;;;;;;;2.60;2.00;;;28.20;97.20;;;;;;4899537;29;20234;-73
2021/06/16 19:17:33;;;;;;;2.95;1.80;;;28.10;97.70;;;;;;4899327;29;20644;-73
2021/06/16 19:20:00;;;;;;;2.40;1.88;;;28.20;97.90;;;;;;4899970;29;20210;-73
2021/06/16 19:22:29;;;;;;;2.25;1.92;;;28.10;98.10;;;;;;4899357;29;20214;-73
2021/06/16 19:24:56;;;;;;;2.20;1.80;;;28.00;98.40;;;;;;4900239;29;20651;-73
2021/06/16 19:27:22;;;;;;;2.53;2.05;;;27.90;98.80;;;;;;4899803;29;20677;-73
2021/06/16 19:29:49;;;;;;;2.30;2.03;;;27.80;99.00;;;;;;4899483;29;20244;-71
2021/06/16 19:32:16;;;;;;;4.10;2.10;;;27.70;99.50;;;;;;4899897;29;20214;-71
2021/06/16 19:34:43;;;;;;;2.78;2.10;;;27.50;99.70;;;;;;4899804;29;20234;-73
2021/06/16 19:37:10;;;;;;;2.67;2.10;;;27.30;99.30;;;;;;4899969;29;20210;-71
2021/06/16 19:39:38;;;;;;;3.80;2.08;;;27.20;99.50;;;;;;4899825;29;20218;-71
2021/06/16 19:42:06;;;;;;;3.05;2.25;;;27.10;99.90;;;;;;4899462;29;20328;-71
2021/06/16 19:44:34;;;;;;;2.45;2.05;;;27.10;99.90;;;;;;4899190;29;20451;-71
2021/06/16 19:47:03;;;;;;;2.28;2.08;;;27.00;99.90;;;;;;4899687;29;20214;-72
2021/06/16 19:49:31;;;;;;;2.13;1.92;;;26.90;99.90;;;;;;4899692;29;20286;-73
2021/06/16 19:51:57;;;;;;;2.40;2.17;;;26.80;99.90;;;;;;4899245;29;20216;-72
2021/06/16 19:54:24;;;;;;;3.42;2.60;;;26.70;99.90;;;;;;4899161;29;20282;-73
2021/06/16 19:56:53;;;;;;;3.25;2.35;;;26.60;99.90;;;;;;4899104;29;20249;-73
2021/06/16 19:59:19;;;;;;;3.35;2.40;;;26.50;99.90;;;;;;4899029;29;20210;-73
2021/06/16 20:01:46;;;;;;;3.53;2.30;;;26.40;99.90;;;;;;4899305;29;20214;-71
2021/06/16 20:04:13;;;;;;;3.13;1.95;;;26.30;99.90;;;;;;4899082;29;20210;-73
2021/06/16 20:06:40;;;;;;;2.78;2.45;;;26.20;99.90;;;;;;4899419;29;20210;-73
2021/06/16 20:09:09;;;;;;;2.80;2.28;;;26.10;99.90;;;;;;4899162;29;20551;-73
2021/06/16 20:11:37;;;;;;;4.70;2.50;;;26.10;99.90;;;;;;4898960;29;20213;-73
2021/06/16 20:14:05;;;;;;;3.75;2.80;;;26.00;99.90;;;;;;4898698;29;20237;-72
2021/06/16 20:16:32;;;;;;;2.60;2.38;;;25.90;99.90;;;;;;4898849;29;20233;-72
2021/06/16 20:18:59;;;;;;;3.03;2.10;;;25.80;99.90;;;;;;4898998;29;20293;-73
2021/06/16 20:21:26;;;;;;;3.17;2.10;;;25.80;99.90;;;;;;4898686;29;20218;-73
2021/06/16 20:23:56;;;;;;;4.28;2.67;;;25.80;99.90;;;;;;4898398;29;20214;-72
2021/06/16 20:26:24;;;;;;;2.80;2.35;;;25.70;99.90;;;;;;4898495;29;20221;-73